createdAt,value
2018-12-22T00:01:13.693Z,1.70
2018-12-22T00:03:42.510Z,1.97
2018-12-22T00:06:11.160Z,1.60
2018-12-22T00:08:40.077Z,2.10
2018-12-22T00:11:08.832Z,2.00
2018-12-22T00:13:37.547Z,1.60
2018-12-22T00:16:06.270Z,1.50
2018-12-22T00:18:34.921Z,1.50
2018-12-22T00:21:03.733Z,1.50
2018-12-22T00:23:32.390Z,1.20
2018-12-22T00:26:01.144Z,1.73
2018-12-22T00:28:29.829Z,1.60
2018-12-22T00:30:58.494Z,2.03
2018-12-22T00:33:27.317Z,1.90
2018-12-22T00:35:56.037Z,2.00
2018-12-22T00:38:24.814Z,1.53
2018-12-22T00:40:53.552Z,2.03
2018-12-22T00:43:22.266Z,1.70
2018-12-22T00:45:50.916Z,2.83
2018-12-22T00:48:19.710Z,1.87
2018-12-22T00:50:48.547Z,1.97
2018-12-22T00:53:17.338Z,1.63
2018-12-22T00:55:46.115Z,1.80
2018-12-22T00:58:14.867Z,1.73
2018-12-22T01:00:43.668Z,1.80
2018-12-22T01:03:12.352Z,1.53
2018-12-22T01:05:41.169Z,2.00
2018-12-22T01:08:09.866Z,1.80
2018-12-22T01:10:38.512Z,1.60
2018-12-22T01:13:07.260Z,1.30
2018-12-22T01:15:35.959Z,1.57
2018-12-22T01:18:04.723Z,1.70
2018-12-22T01:20:33.489Z,1.37
2018-12-22T01:23:02.421Z,1.43
2018-12-22T01:25:31.123Z,1.37
2018-12-22T01:27:59.851Z,1.53
2018-12-22T01:30:28.598Z,1.17
2018-12-22T01:32:57.383Z,1.10
2018-12-22T01:35:26.172Z,1.10
2018-12-22T01:37:54.934Z,1.00
2018-12-22T01:40:23.747Z,0.90
2018-12-22T01:42:52.459Z,0.73
2018-12-22T01:45:21.262Z,0.87
2018-12-22T01:47:50.092Z,0.70
2018-12-22T01:50:18.868Z,0.70
2018-12-22T01:52:47.732Z,0.60
2018-12-22T01:55:16.380Z,0.60
2018-12-22T01:57:45.053Z,0.80
2018-12-22T02:00:13.758Z,0.60
2018-12-22T02:02:42.470Z,0.60
2018-12-22T02:05:11.166Z,0.60
2018-12-22T02:07:39.804Z,0.50
2018-12-22T02:10:08.618Z,0.40
2018-12-22T02:12:37.372Z,0.70
2018-12-22T02:15:06.258Z,0.40
2018-12-22T02:17:34.967Z,0.57
2018-12-22T02:20:03.943Z,0.50
2018-12-22T02:22:32.591Z,0.40
2018-12-22T02:25:01.294Z,0.50
2018-12-22T02:27:29.987Z,0.50
2018-12-22T02:29:58.668Z,0.40
2018-12-22T02:32:27.673Z,0.67
2018-12-22T02:34:56.615Z,0.50
2018-12-22T02:37:25.440Z,0.60
2018-12-22T02:39:54.211Z,0.60
2018-12-22T02:42:22.983Z,0.63
2018-12-22T02:44:51.867Z,0.50
2018-12-22T02:47:20.551Z,0.60
2018-12-22T02:49:49.255Z,0.60
2018-12-22T02:52:17.904Z,0.60
2018-12-22T02:54:46.619Z,0.47
2018-12-22T02:57:15.388Z,0.57
2018-12-22T02:59:44.176Z,0.50
2018-12-22T03:02:12.897Z,0.70
2018-12-22T03:04:41.626Z,0.50
2018-12-22T03:07:10.355Z,0.60
2018-12-22T03:09:39.136Z,0.60
2018-12-22T03:12:07.901Z,0.57
2018-12-22T03:14:36.712Z,0.47
2018-12-22T03:17:05.472Z,0.50
2018-12-22T03:19:34.317Z,0.50
2018-12-22T03:22:03.059Z,0.60
2018-12-22T03:24:31.770Z,0.60
2018-12-22T03:27:00.410Z,0.60
2018-12-22T03:29:29.588Z,0.60
2018-12-22T03:31:58.301Z,0.60
2018-12-22T03:34:27.144Z,0.60
2018-12-22T03:36:55.805Z,0.60
2018-12-22T03:39:24.493Z,0.60
2018-12-22T03:41:53.197Z,0.50
2018-12-22T03:44:22.261Z,0.73
2018-12-22T03:46:50.981Z,0.80
2018-12-22T03:49:19.743Z,0.80
2018-12-22T03:51:48.476Z,0.60
2018-12-22T03:54:17.112Z,0.60
2018-12-22T03:56:45.889Z,0.67
2018-12-22T03:59:14.604Z,0.80
2018-12-22T04:01:43.450Z,0.90
2018-12-22T04:04:13.983Z,0.70
2018-12-22T04:06:42.717Z,0.50
2018-12-22T04:09:11.460Z,0.60
2018-12-22T04:11:40.247Z,0.50
2018-12-22T04:14:08.941Z,0.70
2018-12-22T04:16:37.982Z,0.60
2018-12-22T04:19:06.695Z,0.60
2018-12-22T04:21:35.474Z,1.17
2018-12-22T04:24:04.226Z,0.60
2018-12-22T04:26:32.986Z,0.60
2018-12-22T04:29:01.717Z,0.50
2018-12-22T04:31:30.495Z,0.60
2018-12-22T04:33:59.138Z,0.67
2018-12-22T04:36:27.900Z,0.43
2018-12-22T04:38:56.734Z,0.40
2018-12-22T04:41:25.404Z,0.47
2018-12-22T04:43:54.083Z,0.50
2018-12-22T04:46:22.844Z,0.40
2018-12-22T04:48:51.528Z,0.43
2018-12-22T04:51:20.330Z,0.40
2018-12-22T04:53:49.126Z,0.60
2018-12-22T04:56:17.818Z,0.40
2018-12-22T04:58:46.531Z,0.50
2018-12-22T05:01:15.337Z,0.50
2018-12-22T05:03:44.098Z,0.50
2018-12-22T05:06:12.922Z,0.67
2018-12-22T05:08:41.567Z,0.80
2018-12-22T05:11:10.202Z,0.90
2018-12-22T05:13:38.897Z,0.80
2018-12-22T05:16:07.623Z,0.70
2018-12-22T05:18:36.386Z,0.50
2018-12-22T05:21:05.147Z,0.50
2018-12-22T05:23:33.938Z,0.60
2018-12-22T05:26:02.712Z,0.53
2018-12-22T05:28:31.430Z,0.50
2018-12-22T05:31:00.071Z,0.60
2018-12-22T05:33:29.269Z,0.60
2018-12-22T05:35:57.988Z,0.80
2018-12-22T05:38:26.697Z,0.50
2018-12-22T05:40:55.336Z,0.60
2018-12-22T05:43:24.054Z,0.60
2018-12-22T05:45:52.712Z,0.80
2018-12-22T05:48:21.364Z,0.67
2018-12-22T05:50:49.997Z,0.67
2018-12-22T05:53:18.702Z,0.60
2018-12-22T05:55:47.420Z,0.60
2018-12-22T05:58:16.186Z,0.73
2018-12-22T06:00:44.923Z,0.70
2018-12-22T06:03:13.635Z,0.60
2018-12-22T06:05:42.397Z,0.87
2018-12-22T06:08:11.103Z,0.70
2018-12-22T06:10:39.777Z,0.70
2018-12-22T06:13:08.564Z,0.60
2018-12-22T06:15:37.206Z,1.00
2018-12-22T06:18:06.002Z,0.70
2018-12-22T06:20:34.734Z,0.80
2018-12-22T06:23:03.511Z,0.63
2018-12-22T06:25:32.238Z,0.70
2018-12-22T06:28:01.017Z,0.90
2018-12-22T06:30:29.739Z,0.73
2018-12-22T06:32:58.474Z,0.80
2018-12-22T06:35:27.177Z,0.80
2018-12-22T06:37:55.889Z,0.80
2018-12-22T06:40:24.655Z,0.83
2018-12-22T06:42:53.282Z,0.80
2018-12-22T06:45:21.998Z,0.70
2018-12-22T06:47:50.847Z,0.80
2018-12-22T06:50:19.636Z,0.80
2018-12-22T06:52:48.523Z,1.40
2018-12-22T06:55:17.247Z,1.00
2018-12-22T06:57:45.946Z,1.00
2018-12-22T07:00:17.931Z,0.90
2018-12-22T07:02:45.360Z,0.93
2018-12-22T07:05:14.122Z,0.73
2018-12-22T07:07:42.796Z,0.90
2018-12-22T07:10:11.722Z,1.10
2018-12-22T07:12:40.443Z,1.00
2018-12-22T07:15:09.266Z,0.77
2018-12-22T07:17:38.066Z,0.80
2018-12-22T07:20:07.046Z,0.80
2018-12-22T07:22:35.929Z,1.20
2018-12-22T07:25:04.814Z,0.80
2018-12-22T07:27:33.553Z,0.93
2018-12-22T07:30:02.326Z,0.67
2018-12-22T07:32:30.997Z,0.97
2018-12-22T07:34:59.732Z,0.90
2018-12-22T07:37:28.562Z,1.00
2018-12-22T07:39:57.228Z,1.00
2018-12-22T07:42:26.089Z,0.90
2018-12-22T07:44:54.878Z,1.17
2018-12-22T07:47:23.769Z,1.20
2018-12-22T07:49:52.425Z,1.00
2018-12-22T07:52:21.282Z,1.30
2018-12-22T07:54:50.128Z,1.10
2018-12-22T07:57:18.817Z,0.87
2018-12-22T07:59:47.575Z,1.03
2018-12-22T08:02:16.243Z,1.00
2018-12-22T08:04:44.969Z,1.00
2018-12-22T08:07:13.823Z,1.00
2018-12-22T08:09:42.605Z,0.90
2018-12-22T08:12:11.309Z,2.00
2018-12-22T08:14:40.169Z,1.47
2018-12-22T08:17:08.893Z,1.77
2018-12-22T08:19:37.617Z,1.40
2018-12-22T08:22:08.444Z,1.80
2018-12-22T08:24:37.113Z,1.70
2018-12-22T08:27:05.905Z,2.00
2018-12-22T08:29:34.711Z,2.70
2018-12-22T08:32:03.478Z,1.50
2018-12-22T08:34:32.317Z,1.70
2018-12-22T08:37:01.136Z,1.37
2018-12-22T08:39:29.995Z,1.60
2018-12-22T08:41:58.782Z,1.70
2018-12-22T08:44:27.888Z,1.60
2018-12-22T08:46:56.593Z,1.40
2018-12-22T08:49:25.456Z,1.80
2018-12-22T08:51:54.279Z,1.63
2018-12-22T08:54:23.008Z,1.90
2018-12-22T08:56:51.816Z,1.97
2018-12-22T08:59:20.582Z,1.87
2018-12-22T09:01:49.296Z,1.50
2018-12-22T09:04:18.155Z,1.60
2018-12-22T09:06:46.976Z,1.80
2018-12-22T09:09:15.712Z,3.20
2018-12-22T09:11:44.495Z,1.83
2018-12-22T09:14:13.207Z,1.80
2018-12-22T09:16:41.964Z,1.73
2018-12-22T09:19:10.808Z,1.97
2018-12-22T09:21:39.639Z,2.10
2018-12-22T09:24:08.400Z,2.20
2018-12-22T09:26:37.280Z,1.90
2018-12-22T09:29:05.990Z,2.60
2018-12-22T09:31:34.888Z,2.33
2018-12-22T09:34:03.659Z,1.97
2018-12-22T09:36:32.440Z,2.10
2018-12-22T09:39:01.381Z,2.20
2018-12-22T09:41:30.171Z,2.10
2018-12-22T09:43:58.860Z,2.30
2018-12-22T09:46:27.888Z,2.00
2018-12-22T09:48:56.620Z,2.00
2018-12-22T09:51:25.411Z,2.07
2018-12-22T09:53:54.175Z,2.20
2018-12-22T09:56:23.125Z,2.30
2018-12-22T09:58:51.934Z,2.33
2018-12-22T10:01:20.715Z,2.17
2018-12-22T10:03:49.414Z,2.50
2018-12-22T10:06:18.683Z,1.90
2018-12-22T10:08:47.548Z,3.00
2018-12-22T10:11:16.384Z,1.70
2018-12-22T10:13:45.295Z,2.03
2018-12-22T10:16:14.063Z,1.90
2018-12-22T10:18:42.918Z,1.70
2018-12-22T10:21:11.720Z,2.00
2018-12-22T10:23:40.535Z,2.20
2018-12-22T10:26:09.303Z,1.87
2018-12-22T10:28:38.137Z,1.80
2018-12-22T10:31:06.898Z,1.90
2018-12-22T10:33:35.751Z,2.00
2018-12-22T10:36:04.675Z,1.70
2018-12-22T10:38:33.507Z,1.83
2018-12-22T10:41:02.451Z,1.63
2018-12-22T10:43:31.271Z,2.00
2018-12-22T10:46:00.275Z,2.60
2018-12-22T10:48:29.123Z,1.70
2018-12-22T10:50:57.893Z,1.50
2018-12-22T10:53:26.726Z,1.90
2018-12-22T10:55:55.501Z,1.37
2018-12-22T10:58:24.280Z,2.00
2018-12-22T11:00:53.201Z,1.90
2018-12-22T11:03:21.903Z,1.80
2018-12-22T11:05:50.786Z,1.70
2018-12-22T11:08:19.553Z,1.70
2018-12-22T11:10:48.184Z,1.30
2018-12-22T11:13:16.973Z,1.60
2018-12-22T11:15:45.897Z,1.53
2018-12-22T11:18:14.925Z,1.60
2018-12-22T11:20:43.689Z,2.17
2018-12-22T11:23:20.255Z,1.37
2018-12-22T11:25:43.327Z,1.13
2018-12-22T11:28:12.077Z,1.40
2018-12-22T11:30:43.076Z,1.60
2018-12-22T11:33:12.247Z,1.57
2018-12-22T11:35:41.176Z,1.20
2018-12-22T11:38:10.103Z,1.07
2018-12-22T11:40:38.954Z,1.33
2018-12-22T11:43:07.758Z,1.50
2018-12-22T11:45:36.578Z,2.57
2018-12-22T11:50:20.137Z,1.93
2018-12-22T11:52:48.913Z,1.67
2018-12-22T11:55:17.698Z,1.70
2018-12-22T11:57:46.367Z,1.60
2018-12-22T12:00:16.086Z,1.47
2018-12-22T12:02:44.910Z,1.60
2018-12-22T12:05:13.899Z,2.00
2018-12-22T12:07:42.992Z,1.47
2018-12-22T12:10:12.172Z,1.90
2018-12-22T12:12:41.346Z,4.00
2018-12-22T12:15:15.716Z,2.17
2018-12-22T12:18:52.065Z,4.03
2018-12-22T12:21:20.958Z,2.00
2018-12-22T12:23:49.995Z,1.37
2018-12-22T12:26:18.867Z,1.67
2018-12-22T12:28:47.809Z,1.53
2018-12-22T12:31:16.747Z,1.70
2018-12-22T12:33:45.729Z,2.00
2018-12-22T12:36:14.555Z,3.93
2018-12-22T12:38:43.278Z,2.20
2018-12-22T12:41:12.073Z,1.77
2018-12-22T12:43:40.717Z,3.10
2018-12-22T12:46:10.070Z,2.90
2018-12-22T12:48:39.173Z,1.20
2018-12-22T12:51:07.995Z,1.77
2018-12-22T12:53:37.039Z,1.50
2018-12-22T12:56:05.844Z,1.20
2018-12-22T12:58:34.735Z,2.00
2018-12-22T13:01:03.609Z,1.73
2018-12-22T13:03:32.419Z,1.80
2018-12-22T13:06:01.148Z,1.40
2018-12-22T13:08:30.184Z,1.60
2018-12-22T13:10:59.323Z,3.27
2018-12-22T13:13:35.203Z,1.70
2018-12-22T13:16:04.237Z,2.20
2018-12-22T13:18:33.833Z,1.93
2018-12-22T13:21:04.298Z,1.80
2018-12-22T13:23:33.113Z,1.67
2018-12-22T13:26:01.932Z,2.10
2018-12-22T13:28:30.627Z,1.37
2018-12-22T13:30:59.351Z,1.57
2018-12-22T13:33:28.153Z,1.53
2018-12-22T13:35:57.499Z,2.10
2018-12-22T13:38:26.900Z,1.60
2018-12-22T13:40:55.863Z,1.73
2018-12-22T13:43:24.543Z,3.80
2018-12-22T13:45:53.227Z,1.70
2018-12-22T13:48:22.447Z,3.67
2018-12-22T13:50:51.578Z,2.13
2018-12-22T13:53:20.950Z,1.70
2018-12-22T13:55:49.887Z,1.63
2018-12-22T13:58:18.731Z,2.10
2018-12-22T14:00:47.987Z,1.90
2018-12-22T14:03:20.373Z,1.80
2018-12-22T14:05:49.363Z,2.03
2018-12-22T14:08:18.815Z,2.10
2018-12-22T14:10:47.693Z,3.83
2018-12-22T14:13:16.487Z,3.37
2018-12-22T14:15:57.347Z,1.90
2018-12-22T14:18:46.925Z,3.53
2018-12-22T14:21:16.477Z,1.70
2018-12-22T14:23:55.319Z,3.17
2018-12-22T14:26:24.151Z,2.00
2018-12-22T14:28:53.762Z,2.33
2018-12-22T14:31:22.582Z,7.30
2018-12-22T14:33:53.114Z,5.83
2018-12-22T14:36:22.068Z,2.03
2018-12-22T14:38:50.808Z,3.40
2018-12-22T14:41:19.855Z,3.30
2018-12-22T14:43:48.559Z,2.20
2018-12-22T14:46:17.326Z,2.20
2018-12-22T14:48:46.034Z,2.53
2018-12-22T14:51:15.033Z,3.03
2018-12-22T14:53:43.688Z,2.60
2018-12-22T14:56:13.386Z,2.40
2018-12-22T14:58:42.306Z,5.50
2018-12-22T15:01:11.162Z,4.27
2018-12-22T15:03:40.146Z,2.87
2018-12-22T15:06:09.050Z,3.00
2018-12-22T15:08:37.874Z,4.47
2018-12-22T15:11:06.760Z,4.60
2018-12-22T15:13:35.653Z,2.60
2018-12-22T15:16:04.594Z,2.40
2018-12-22T15:18:33.386Z,2.43
2018-12-22T15:21:02.170Z,4.73
2018-12-22T15:23:31.088Z,8.43
2018-12-22T15:25:59.806Z,2.57
2018-12-22T15:28:28.576Z,4.47
2018-12-22T15:30:57.462Z,2.50
2018-12-22T15:33:26.220Z,3.43
2018-12-22T15:35:55.134Z,3.70
2018-12-22T15:38:24.335Z,8.60
2018-12-22T15:40:53.139Z,3.27
2018-12-22T15:43:22.286Z,2.70
2018-12-22T15:45:51.096Z,5.43
2018-12-22T15:48:19.998Z,4.70
2018-12-22T15:50:49.245Z,3.30
2018-12-22T15:53:17.986Z,3.50
2018-12-22T15:55:46.814Z,3.17
2018-12-22T15:58:15.658Z,4.40
2018-12-22T16:00:44.518Z,4.03
2018-12-22T16:03:13.438Z,4.60
2018-12-22T16:05:42.639Z,4.37
2018-12-22T16:08:11.536Z,3.73
2018-12-22T16:10:40.333Z,15.23
2018-12-22T16:13:09.353Z,8.13
2018-12-22T16:15:38.200Z,5.07
2018-12-22T16:18:07.091Z,3.90
2018-12-22T16:20:35.997Z,4.10
2018-12-22T16:23:05.328Z,5.27
2018-12-22T16:25:34.283Z,5.97
2018-12-22T16:28:08.518Z,5.87
2018-12-22T16:30:44.973Z,3.60
2018-12-22T16:33:13.795Z,4.00
2018-12-22T16:35:42.632Z,3.30
2018-12-22T16:38:11.528Z,4.90
2018-12-22T16:40:40.648Z,5.07
2018-12-22T16:43:12.013Z,3.50
2018-12-22T16:45:44.209Z,3.20
2018-12-22T16:48:13.111Z,4.53
2018-12-22T16:50:43.506Z,4.77
2018-12-22T16:53:12.498Z,8.43
2018-12-22T16:55:42.353Z,6.63
2018-12-22T16:58:17.691Z,4.40
2018-12-22T17:00:56.037Z,5.97
2018-12-22T17:03:25.026Z,10.40
2018-12-22T17:05:53.869Z,9.23
2018-12-22T17:08:22.757Z,13.00
2018-12-22T17:10:55.923Z,20.83
2018-12-22T17:13:24.823Z,13.10
2018-12-22T17:15:56.613Z,7.93
2018-12-22T17:18:25.998Z,7.00
2018-12-22T17:20:59.839Z,8.93
2018-12-22T17:23:42.445Z,6.30
2018-12-22T17:26:11.297Z,10.27
2018-12-22T17:28:40.375Z,11.63
2018-12-22T17:31:09.369Z,9.93
2018-12-22T17:33:38.217Z,15.27
2018-12-22T17:36:07.641Z,13.00
2018-12-22T17:38:36.507Z,10.77
2018-12-22T17:41:05.307Z,11.10
2018-12-22T17:43:34.366Z,11.60
2018-12-22T17:46:03.520Z,10.27
2018-12-22T17:48:32.438Z,9.00
2018-12-22T17:51:01.495Z,10.70
2018-12-22T17:53:30.484Z,13.93
2018-12-22T17:55:59.290Z,7.30
2018-12-22T17:58:28.102Z,8.10
2018-12-22T18:00:57.138Z,6.80
2018-12-22T18:03:30.738Z,7.67
2018-12-22T18:05:59.734Z,12.03
2018-12-22T18:08:28.509Z,11.90
2018-12-22T18:10:57.302Z,10.30
2018-12-22T18:13:28.078Z,12.90
2018-12-22T18:15:57.035Z,8.23
2018-12-22T18:18:25.951Z,12.57
2018-12-22T18:20:54.734Z,16.73
2018-12-22T18:23:23.606Z,12.20
2018-12-22T18:25:52.548Z,15.27
2018-12-22T18:28:21.417Z,35.80
2018-12-22T18:30:50.236Z,16.13
2018-12-22T18:33:19.017Z,15.47
2018-12-22T18:35:47.965Z,15.00
2018-12-22T18:38:16.846Z,18.17
2018-12-22T18:40:45.679Z,17.43
2018-12-22T18:43:14.659Z,15.73
2018-12-22T18:45:43.559Z,12.97
2018-12-22T18:48:12.284Z,12.67
2018-12-22T18:50:41.093Z,12.33
2018-12-22T18:53:09.958Z,20.47
2018-12-22T18:55:38.709Z,11.37
2018-12-22T18:58:09.486Z,16.27
2018-12-22T19:00:38.435Z,16.33
2018-12-22T19:03:07.239Z,15.67
2018-12-22T19:05:36.075Z,17.73
2018-12-22T19:08:13.441Z,10.07
2018-12-22T19:10:50.135Z,14.77
2018-12-22T19:13:18.947Z,10.63
2018-12-22T19:15:47.762Z,12.10
2018-12-22T19:18:16.617Z,9.70
2018-12-22T19:20:49.456Z,29.53
2018-12-22T19:23:19.573Z,14.57
2018-12-22T19:25:48.374Z,15.50
2018-12-22T19:28:17.143Z,10.57
2018-12-22T19:30:45.955Z,8.13
2018-12-22T19:33:14.744Z,8.00
2018-12-22T19:35:43.493Z,15.87
2018-12-22T19:38:12.252Z,13.03
2018-12-22T19:40:41.122Z,12.23
2018-12-22T19:43:09.910Z,11.17
2018-12-22T19:45:39.381Z,37.63
2018-12-22T19:48:08.335Z,30.83
2018-12-22T19:50:37.062Z,16.47
2018-12-22T19:53:05.818Z,11.90
2018-12-22T19:55:34.678Z,10.43
2018-12-22T19:58:03.458Z,9.13
2018-12-22T20:00:32.102Z,9.43
2018-12-22T20:03:00.891Z,9.77
2018-12-22T20:05:29.800Z,34.13
2018-12-22T20:07:58.590Z,43.63
2018-12-22T20:10:27.396Z,10.50
2018-12-22T20:12:56.186Z,11.50
2018-12-22T20:15:24.904Z,11.80
2018-12-22T20:17:53.673Z,9.20
2018-12-22T20:20:22.498Z,10.67
2018-12-22T20:22:51.296Z,10.13
2018-12-22T20:25:20.013Z,10.17
2018-12-22T20:27:48.722Z,10.00
2018-12-22T20:30:17.475Z,9.40
2018-12-22T20:32:46.348Z,9.43
2018-12-22T20:35:15.077Z,8.60
2018-12-22T20:37:43.965Z,10.00
2018-12-22T20:40:12.790Z,9.47
2018-12-22T20:42:41.492Z,10.60
2018-12-22T20:45:10.303Z,9.90
2018-12-22T20:47:38.981Z,10.73
2018-12-22T20:50:07.860Z,11.10
2018-12-22T20:52:36.533Z,11.63
2018-12-22T20:55:05.558Z,10.70
2018-12-22T20:57:34.314Z,14.73
2018-12-22T21:00:03.255Z,13.90
2018-12-22T21:02:31.938Z,11.27
2018-12-22T21:05:00.835Z,9.00
2018-12-22T21:07:29.599Z,10.67
2018-12-22T21:09:58.265Z,10.60
2018-12-22T21:12:27.025Z,10.77
2018-12-22T21:14:55.740Z,14.67
2018-12-22T21:17:24.561Z,11.37
2018-12-22T21:19:53.470Z,10.03
2018-12-22T21:22:22.194Z,8.93
2018-12-22T21:24:51.039Z,9.20
2018-12-22T21:27:19.771Z,8.73
2018-12-22T21:29:48.499Z,7.90
2018-12-22T21:32:17.415Z,8.93
2018-12-22T21:34:46.400Z,9.50
2018-12-22T21:37:15.167Z,11.27
2018-12-22T21:39:44.016Z,12.93
2018-12-22T21:42:12.672Z,13.17
2018-12-22T21:44:41.908Z,13.20
2018-12-22T21:47:10.830Z,11.70
2018-12-22T21:49:39.833Z,10.47
2018-12-22T21:52:08.648Z,11.10
2018-12-22T21:54:37.436Z,11.53
2018-12-22T21:57:06.178Z,11.17
2018-12-22T21:59:34.952Z,11.10
2018-12-22T22:02:03.848Z,10.97
2018-12-22T22:04:36.995Z,10.87
2018-12-22T22:07:03.340Z,10.30
2018-12-22T22:09:32.082Z,11.20
2018-12-22T22:12:00.851Z,11.97
2018-12-22T22:14:29.577Z,12.87
2018-12-22T22:16:58.369Z,13.53
2018-12-22T22:19:27.158Z,13.03
2018-12-22T22:21:55.867Z,13.30
2018-12-22T22:24:24.583Z,12.40
2018-12-22T22:26:53.247Z,12.73
2018-12-22T22:29:22.019Z,12.53
2018-12-22T22:31:50.789Z,11.90
2018-12-22T22:34:19.487Z,10.40
2018-12-22T22:36:48.194Z,10.27
2018-12-22T22:39:16.928Z,12.50
2018-12-22T22:41:45.743Z,11.63
2018-12-22T22:44:14.594Z,11.93
2018-12-22T22:46:43.506Z,12.53
2018-12-22T22:49:12.226Z,12.43
2018-12-22T22:51:40.950Z,11.03
2018-12-22T22:54:09.724Z,10.30
2018-12-22T22:56:38.391Z,11.47
2018-12-22T22:59:07.284Z,11.67
2018-12-22T23:01:36.092Z,11.30
2018-12-22T23:04:04.890Z,11.43
2018-12-22T23:06:33.580Z,11.97
2018-12-22T23:09:02.427Z,11.97
2018-12-22T23:11:31.410Z,11.37
2018-12-22T23:14:00.122Z,12.00
2018-12-22T23:16:28.918Z,11.13
2018-12-22T23:18:57.712Z,11.80
2018-12-22T23:21:26.824Z,10.93
2018-12-22T23:23:55.658Z,11.70
2018-12-22T23:26:24.370Z,11.23
2018-12-22T23:28:53.354Z,11.17
2018-12-22T23:31:22.161Z,10.97
2018-12-22T23:33:50.942Z,10.63
2018-12-22T23:36:19.958Z,10.87
2018-12-22T23:38:48.685Z,10.87
2018-12-22T23:41:17.936Z,11.50
2018-12-22T23:43:46.688Z,12.07
2018-12-22T23:46:15.718Z,12.67
2018-12-22T23:48:44.426Z,12.23
2018-12-22T23:51:13.400Z,12.63
2018-12-22T23:53:42.126Z,11.97
2018-12-22T23:56:10.874Z,12.67
2018-12-22T23:58:39.678Z,11.27
